Time;durP1;ratioP1;P1;durP2;ratioP2;P2;SDS_P1;SDS_P2;PMS_P1;PMS_P2;Temp;Humidity;BMP_temperature;BMP_pressure;BME280_temperature;BME280_humidity;BME280_pressure;Samples;Min_cycle;Max_cycle;Signal;HPM_P1;HPM_P2
2022/10/26 00:01:48;;;;;;;28.55;21.12;;;22.90;62.40;;;;;;4744618;59;21010;-31
2022/10/26 00:06:49;;;;;;;25.88;20.80;;;22.90;62.40;;;;;;4758811;55;21105;-32
2022/10/26 00:11:51;;;;;;;24.65;19.40;;;22.90;62.40;;;;;;5108767;55;20990;-30
2022/10/26 00:16:51;;;;;;;28.15;20.67;;;22.90;62.40;;;;;;4745615;59;20998;-37
2022/10/26 00:21:52;;;;;;;24.80;20.55;;;22.90;62.40;;;;;;4744552;59;21022;-38
2022/10/26 00:26:53;;;;;;;25.00;19.92;;;22.90;62.40;;;;;;4908991;55;21090;-39
2022/10/26 00:31:54;;;;;;;24.48;19.67;;;22.90;62.40;;;;;;4906234;55;21539;-44
2022/10/26 00:36:54;;;;;;;25.67;20.15;;;22.90;62.30;;;;;;5231395;55;21002;-37
2022/10/26 00:41:55;;;;;;;25.35;19.65;;;22.90;62.40;;;;;;5001108;55;21007;-44
2022/10/26 00:46:56;;;;;;;24.40;18.65;;;22.90;62.50;;;;;;4999139;55;21001;-44
2022/10/26 00:51:57;;;;;;;24.73;18.50;;;22.90;62.30;;;;;;4773596;55;21085;-39
2022/10/26 00:56:58;;;;;;;25.17;18.95;;;22.90;62.50;;;;;;4816935;55;21018;-30
2022/10/26 01:02:00;;;;;;;24.87;18.73;;;22.90;62.30;;;;;;5226092;55;21464;-31
2022/10/26 01:07:03;;;;;;;23.20;19.08;;;22.90;62.30;;;;;;4745335;59;21010;-41
2022/10/26 01:12:04;;;;;;;23.50;17.67;;;22.90;62.40;;;;;;4908427;55;21064;-41
2022/10/26 01:20:10;;;;;;;21.35;17.40;;;22.90;62.30;;;;;;4755916;55;21066;-37
2022/10/26 01:25:55;;;;;;;21.60;17.33;;;22.90;62.40;;;;;;5024444;55;21026;-40
2022/10/26 01:30:59;;;;;;;20.42;16.70;;;22.90;62.30;;;;;;4745585;59;21041;-44
2022/10/26 01:39:43;;;;;;;21.58;17.25;;;22.90;62.20;;;;;;4745741;59;20991;-41
2022/10/26 01:44:58;;;;;;;18.73;16.00;;;22.90;62.20;;;;;;4924338;55;21049;-38
2022/10/26 01:50:01;;;;;;;20.20;16.02;;;22.90;62.20;;;;;;5230349;55;21037;-38
2022/10/26 01:55:26;;;;;;;21.40;16.65;;;22.90;62.30;;;;;;4758153;55;20994;-43
2022/10/26 02:00:28;;;;;;;19.83;15.80;;;22.90;62.00;;;;;;5231167;55;20994;-40
2022/10/26 02:05:43;;;;;;;20.25;15.82;;;22.90;62.10;;;;;;5230680;55;21069;-44
2022/10/26 02:11:11;;;;;;;22.10;15.55;;;22.90;62.00;;;;;;4989952;55;21046;-34
2022/10/26 02:16:29;;;;;;;20.35;15.40;;;22.90;62.20;;;;;;4867155;55;21042;-32
2022/10/26 02:21:44;;;;;;;19.55;15.40;;;22.90;61.90;;;;;;4745074;59;21066;-36
2022/10/26 02:26:47;;;;;;;18.52;15.30;;;22.90;62.00;;;;;;4744561;59;21140;-37
2022/10/26 02:31:50;;;;;;;21.23;16.05;;;22.80;62.00;;;;;;4829408;55;21069;-40
2022/10/26 02:36:55;;;;;;;19.77;14.27;;;22.90;61.90;;;;;;4782740;55;21048;-38
2022/10/26 02:41:58;;;;;;;19.55;15.52;;;22.80;61.90;;;;;;4744696;59;21014;-30
2022/10/26 02:47:00;;;;;;;17.58;13.95;;;22.80;61.90;;;;;;4754065;55;20998;-43
2022/10/26 02:53:12;;;;;;;16.48;13.48;;;22.80;61.80;;;;;;4904581;55;21069;-45
2022/10/26 02:58:23;;;;;;;16.67;14.02;;;22.80;61.80;;;;;;4830630;55;21006;-44
2022/10/26 03:03:24;;;;;;;17.50;13.27;;;22.80;61.80;;;;;;4923866;55;21053;-48
2022/10/26 03:08:25;;;;;;;16.10;13.65;;;22.80;61.70;;;;;;4745607;59;20994;-40
2022/10/26 03:13:26;;;;;;;17.25;13.82;;;22.80;61.70;;;;;;5001299;55;21090;-37
2022/10/26 03:18:26;;;;;;;16.85;13.85;;;22.80;61.80;;;;;;4894332;55;21014;-35
2022/10/26 03:23:27;;;;;;;16.25;13.30;;;22.80;61.70;;;;;;4837111;55;21038;-48
2022/10/26 03:28:28;;;;;;;16.50;13.20;;;22.80;61.70;;;;;;4787151;55;20990;-34
2022/10/26 03:33:29;;;;;;;17.73;13.10;;;22.80;61.60;;;;;;5230342;55;20998;-40
2022/10/26 03:38:30;;;;;;;17.15;13.77;;;22.80;61.90;;;;;;4750157;55;21057;-49
2022/10/26 03:43:30;;;;;;;16.48;12.85;;;22.80;61.70;;;;;;4745146;55;21001;-34
2022/10/26 03:48:31;;;;;;;17.30;13.23;;;22.80;61.60;;;;;;4798341;55;21532;-39
2022/10/26 03:53:32;;;;;;;16.08;12.82;;;22.80;61.50;;;;;;4813823;55;20995;-45
2022/10/26 03:58:33;;;;;;;17.48;13.85;;;22.80;61.40;;;;;;5003934;55;21009;-40
2022/10/26 04:03:34;;;;;;;15.00;12.10;;;22.80;62.10;;;;;;4745615;59;21103;-33
2022/10/26 04:08:34;;;;;;;15.38;12.45;;;22.90;61.50;;;;;;4954491;55;21013;-30
2022/10/26 04:13:35;;;;;;;15.40;12.50;;;22.80;61.60;;;;;;4863652;55;21511;-35
2022/10/26 04:18:36;;;;;;;13.62;11.57;;;22.80;61.50;;;;;;4767247;55;21459;-39
2022/10/26 04:23:37;;;;;;;14.95;11.80;;;22.80;61.60;;;;;;4745323;55;21046;-42
2022/10/26 04:28:38;;;;;;;13.40;11.38;;;22.80;61.60;;;;;;4810665;55;21002;-45
2022/10/26 04:33:39;;;;;;;15.02;11.57;;;22.80;61.60;;;;;;4851563;55;20997;-41
2022/10/26 04:38:39;;;;;;;14.87;12.10;;;22.80;61.60;;;;;;4801219;55;21029;-43
2022/10/26 04:43:40;;;;;;;12.77;11.07;;;22.80;61.50;;;;;;4863828;55;21113;-43
2022/10/26 04:48:41;;;;;;;14.27;11.90;;;22.80;61.40;;;;;;4745065;59;21066;-39
2022/10/26 04:53:42;;;;;;;14.82;11.50;;;22.80;61.40;;;;;;4772697;55;21018;-43
2022/10/26 04:58:42;;;;;;;15.23;11.75;;;22.80;61.40;;;;;;4827482;55;21009;-38
2022/10/26 05:03:43;;;;;;;14.52;11.88;;;22.80;61.50;;;;;;4836630;55;21057;-37
2022/10/26 05:08:44;;;;;;;15.43;11.38;;;22.70;61.20;;;;;;4965778;55;21511;-37
2022/10/26 05:13:46;;;;;;;14.27;11.25;;;22.80;61.40;;;;;;4825211;55;21535;-35
2022/10/26 05:18:50;;;;;;;13.80;10.95;;;22.70;61.30;;;;;;4774322;55;21554;-40
2022/10/26 05:23:54;;;;;;;14.65;11.57;;;22.80;61.40;;;;;;4798597;55;21074;-47
2022/10/26 05:28:54;;;;;;;11.85;10.32;;;22.70;61.10;;;;;;4745365;59;21610;-39
2022/10/26 05:33:55;;;;;;;14.87;11.32;;;22.80;61.30;;;;;;4983183;55;21088;-46
2022/10/26 05:38:59;;;;;;;14.60;11.27;;;22.80;61.10;;;;;;4804635;55;21010;-44
2022/10/26 05:44:00;;;;;;;12.85;11.12;;;22.80;61.10;;;;;;4745156;59;21601;-45
2022/10/26 05:49:01;;;;;;;14.13;11.65;;;22.80;61.10;;;;;;4745262;55;21002;-39
2022/10/26 05:54:02;;;;;;;17.30;11.55;;;22.70;61.00;;;;;;4768751;55;21002;-44
2022/10/26 05:59:09;;;;;;;14.70;12.55;;;22.70;61.20;;;;;;4832271;55;21540;-46
2022/10/26 06:04:56;;;;;;;13.50;11.02;;;22.70;61.00;;;;;;4776777;55;20962;-47
2022/10/26 06:09:58;;;;;;;15.90;12.10;;;22.80;61.00;;;;;;4745569;59;20986;-30
2022/10/26 06:15:00;;;;;;;14.38;12.10;;;22.70;60.90;;;;;;4826884;55;21041;-40
2022/10/26 06:24:42;;;;;;;14.75;12.20;;;22.80;61.00;;;;;;4993299;55;20990;-38
2022/10/26 06:30:08;;;;;;;14.75;12.18;;;22.70;61.10;;;;;;4787413;55;21543;-39
2022/10/26 06:38:56;;;;;;;15.38;11.65;;;22.80;60.90;;;;;;5060699;55;21559;-49
2022/10/26 06:43:57;;;;;;;14.77;12.15;;;22.70;60.70;;;;;;4744663;59;21074;-43
2022/10/26 06:51:39;;;;;;;14.77;12.15;;;22.70;60.70;;;;;;4768431;55;21025;-42
2022/10/26 06:56:40;;;;;;;18.20;14.13;;;22.70;60.80;;;;;;4798397;55;21121;-43
2022/10/26 07:01:41;;;;;;;18.80;13.77;;;22.70;60.60;;;;;;4874618;55;21479;-42
2022/10/26 07:06:41;;;;;;;18.05;13.80;;;22.70;60.70;;;;;;4815611;55;20998;-44
2022/10/26 07:11:42;;;;;;;18.48;13.98;;;22.70;60.60;;;;;;4807558;55;21066;-44
2022/10/26 07:16:43;;;;;;;17.23;13.35;;;22.70;60.70;;;;;;4742143;59;21057;-44
2022/10/26 07:21:44;;;;;;;17.48;14.18;;;22.80;60.60;;;;;;4743218;55;21009;-43
2022/10/26 07:26:45;;;;;;;18.73;14.10;;;22.80;61.30;;;;;;4937712;55;21124;-40
2022/10/26 07:31:45;;;;;;;17.85;15.13;;;22.80;60.60;;;;;;4742507;59;21535;-42
2022/10/26 07:36:46;;;;;;;22.77;17.90;;;22.80;60.20;;;;;;4794888;55;21021;-46
2022/10/26 07:41:47;;;;;;;29.50;20.35;;;22.90;60.00;;;;;;4840749;55;21027;-38
2022/10/26 07:46:48;;;;;;;30.10;22.55;;;22.90;59.70;;;;;;4771688;55;21066;-33
2022/10/26 07:51:48;;;;;;;32.30;24.83;;;23.00;59.30;;;;;;4745157;59;21001;-41
2022/10/26 07:56:49;;;;;;;36.22;27.20;;;23.00;59.00;;;;;;4745347;55;21053;-43
2022/10/26 08:01:51;;;;;;;37.63;27.67;;;23.00;58.20;;;;;;4783399;55;21010;-35
2022/10/26 08:06:52;;;;;;;38.83;29.73;;;23.00;58.70;;;;;;4779704;55;21038;-45
2022/10/26 08:11:52;;;;;;;43.90;32.20;;;23.00;58.20;;;;;;4753352;55;21703;-30
2022/10/26 08:16:53;;;;;;;45.12;33.65;;;23.00;58.10;;;;;;4748580;55;20998;-36
2022/10/26 08:21:54;;;;;;;51.40;37.33;;;23.00;57.80;;;;;;4768862;55;21028;-37
2022/10/26 08:26:55;;;;;;;52.50;39.17;;;23.10;57.70;;;;;;4744155;59;21026;-48
2022/10/26 08:31:56;;;;;;;58.60;42.05;;;23.10;57.60;;;;;;4839533;55;21551;-31
2022/10/26 08:36:57;;;;;;;57.28;40.75;;;23.00;58.00;;;;;;4802648;55;21058;-35
2022/10/26 08:42:17;;;;;;;58.40;43.42;;;23.10;57.50;;;;;;4875485;55;21084;-31
2022/10/26 08:47:24;;;;;;;66.47;47.95;;;23.10;57.40;;;;;;4745322;55;20994;-29
2022/10/26 08:52:31;;;;;;;62.17;44.88;;;23.10;57.40;;;;;;4786575;55;20994;-37
2022/10/26 08:57:40;;;;;;;62.83;48.45;;;23.10;57.40;;;;;;4934236;55;21009;-36
2022/10/26 09:02:40;;;;;;;64.50;49.63;;;23.10;57.50;;;;;;4776784;55;21502;-34
2022/10/26 09:08:06;;;;;;;66.82;50.65;;;23.20;58.20;;;;;;4859479;55;21077;-43
2022/10/26 09:13:44;;;;;;;67.00;50.60;;;23.20;57.60;;;;;;4742943;55;21010;-39
2022/10/26 09:19:32;;;;;;;66.93;52.47;;;23.20;57.50;;;;;;4755053;55;21046;-35
2022/10/26 09:24:37;;;;;;;64.90;50.90;;;23.20;58.00;;;;;;4765251;55;21074;-28
2022/10/26 09:29:42;;;;;;;68.28;54.13;;;23.30;58.10;;;;;;4858509;55;20990;-31
2022/10/26 09:35:24;;;;;;;67.18;50.40;;;23.30;58.30;;;;;;4766454;55;21162;-28
2022/10/26 09:40:33;;;;;;;68.28;52.72;;;23.30;58.40;;;;;;4853041;55;21006;-33
2022/10/26 09:45:40;;;;;;;68.00;50.80;;;23.30;58.40;;;;;;4779057;55;21074;-34
2022/10/26 09:50:47;;;;;;;65.68;51.63;;;23.40;58.60;;;;;;4744435;59;21014;-32
2022/10/26 09:55:52;;;;;;;70.28;53.22;;;23.40;58.70;;;;;;4745270;59;21048;-37
2022/10/26 10:00:53;;;;;;;70.28;53.58;;;23.40;58.80;;;;;;4746327;55;21030;-33
2022/10/26 10:06:18;;;;;;;67.05;52.53;;;23.50;58.90;;;;;;4745131;59;21077;-36
2022/10/26 10:11:19;;;;;;;67.97;51.70;;;23.50;59.00;;;;;;4776315;55;21022;-35
2022/10/26 10:16:22;;;;;;;66.40;51.25;;;23.50;59.10;;;;;;4755204;55;21097;-28
2022/10/26 10:21:37;;;;;;;65.40;49.47;;;23.50;59.20;;;;;;4748978;55;21025;-31
2022/10/26 10:26:59;;;;;;;65.05;49.97;;;23.50;59.30;;;;;;4825751;55;21162;-36
2022/10/26 10:32:02;;;;;;;73.28;52.22;;;23.60;59.50;;;;;;4744919;59;21046;-44
2022/10/26 10:37:04;;;;;;;61.10;47.72;;;23.60;59.50;;;;;;4756737;55;21105;-30
2022/10/26 10:42:25;;;;;;;71.10;48.90;;;23.60;59.60;;;;;;4795943;55;21598;-37
2022/10/26 10:47:32;;;;;;;66.72;49.80;;;23.70;59.60;;;;;;4789831;55;20989;-40
2022/10/26 10:52:34;;;;;;;65.53;47.95;;;23.70;59.70;;;;;;4812028;55;21073;-32
2022/10/26 10:58:06;;;;;;;64.20;48.03;;;23.70;59.90;;;;;;4745023;59;21010;-34
2022/10/26 11:03:46;;;;;;;68.25;48.50;;;23.70;59.90;;;;;;4832286;55;21042;-40
2022/10/26 11:09:34;;;;;;;64.65;48.45;;;23.60;60.00;;;;;;4744043;59;20978;-40
2022/10/26 11:14:40;;;;;;;67.10;49.08;;;23.70;60.10;;;;;;4842201;55;21014;-34
2022/10/26 11:20:28;;;;;;;69.15;50.17;;;23.70;60.20;;;;;;4744552;59;21066;-45
2022/10/26 11:25:36;;;;;;;67.03;49.28;;;23.70;60.10;;;;;;4768305;55;21025;-42
2022/10/26 11:30:45;;;;;;;62.67;45.95;;;23.70;60.20;;;;;;4745111;59;21081;-39
2022/10/26 11:35:58;;;;;;;64.05;47.95;;;23.80;60.50;;;;;;4807302;55;21018;-44
2022/10/26 11:41:06;;;;;;;68.57;47.55;;;23.80;60.50;;;;;;4763447;55;21066;-43
2022/10/26 11:46:28;;;;;;;62.90;46.33;;;23.80;60.50;;;;;;4745442;59;21535;-42
2022/10/26 11:52:26;;;;;;;57.60;43.10;;;23.80;60.60;;;;;;4847809;55;21049;-44
2022/10/26 11:57:28;;;;;;;65.60;46.78;;;23.80;60.90;;;;;;4852098;55;21010;-42
2022/10/26 12:02:31;;;;;;;58.28;44.15;;;23.80;60.30;;;;;;4743685;59;21030;-39
2022/10/26 12:07:36;;;;;;;61.00;44.92;;;23.80;60.20;;;;;;4825795;55;21061;-40
2022/10/26 12:13:07;;;;;;;62.70;44.88;;;23.70;60.10;;;;;;4744800;59;21017;-41
2022/10/26 12:18:24;;;;;;;61.03;43.22;;;23.70;60.10;;;;;;4810581;55;21062;-39
2022/10/26 12:23:25;;;;;;;57.53;42.15;;;23.70;60.20;;;;;;4747473;55;20998;-32
2022/10/26 12:28:40;;;;;;;57.10;43.87;;;23.80;60.40;;;;;;4743628;59;21066;-37
2022/10/26 12:33:49;;;;;;;58.67;43.17;;;23.80;61.00;;;;;;4798352;55;21440;-43
2022/10/26 12:38:58;;;;;;;56.60;42.33;;;23.80;60.70;;;;;;4744682;59;21057;-39
2022/10/26 12:44:30;;;;;;;58.97;43.05;;;23.80;60.70;;;;;;4744979;59;21440;-30
2022/10/26 12:50:50;;;;;;;62.03;45.20;;;23.80;60.80;;;;;;4961059;55;21065;-40
2022/10/26 12:56:08;;;;;;;57.15;43.13;;;23.80;61.00;;;;;;4880217;55;21098;-47
2022/10/26 13:04:02;;;;;;;60.92;43.25;;;23.90;61.00;;;;;;4746325;55;21121;-38
2022/10/26 13:09:16;;;;;;;57.25;43.22;;;23.90;60.90;;;;;;4748138;55;21491;-38
2022/10/26 13:14:25;;;;;;;58.50;42.72;;;23.90;61.10;;;;;;4744904;59;20998;-40
2022/10/26 13:19:42;;;;;;;64.40;44.97;;;23.90;61.00;;;;;;4744532;59;21010;-44
2022/10/26 13:24:50;;;;;;;60.90;44.47;;;23.90;61.10;;;;;;4770694;55;21058;-46
2022/10/26 13:31:53;;;;;;;61.58;45.67;;;23.90;61.10;;;;;;4795306;55;21053;-46
2022/10/26 13:37:19;;;;;;;57.83;45.58;;;24.00;61.20;;;;;;4857886;55;21094;-39
2022/10/26 13:42:25;;;;;;;58.47;44.80;;;24.00;61.20;;;;;;4744259;57;21519;-45
2022/10/26 13:47:40;;;;;;;70.57;45.53;;;24.00;61.10;;;;;;4837347;55;21010;-44
2022/10/26 13:52:44;;;;;;;63.38;45.70;;;24.00;60.80;;;;;;4813670;55;21291;-40
2022/10/26 14:00:29;;;;;;;61.00;45.53;;;24.00;60.90;;;;;;4745319;55;21002;-44
2022/10/26 14:05:31;;;;;;;57.75;45.50;;;24.00;61.10;;;;;;4783701;55;21014;-45
2022/10/26 14:10:44;;;;;;;56.08;42.53;;;24.00;60.90;;;;;;4744823;59;21835;-45
2022/10/26 14:15:45;;;;;;;273.38;234.80;;;24.00;60.90;;;;;;4744910;56;21026;-43
2022/10/26 14:20:51;;;;;;;344.85;307.90;;;24.00;60.90;;;;;;4805274;55;21057;-43
2022/10/26 14:25:53;;;;;;;347.25;309.98;;;23.90;61.40;;;;;;4743142;59;21050;-40
2022/10/26 14:31:19;;;;;;;364.00;325.10;;;23.90;61.60;;;;;;4816291;55;22173;-43
2022/10/26 14:36:32;;;;;;;343.98;307.08;;;23.80;61.80;;;;;;4760929;55;21638;-45
2022/10/26 14:41:35;;;;;;;341.52;305.23;;;23.80;61.90;;;;;;4745544;55;21074;-41
2022/10/26 14:46:35;;;;;;;339.15;303.40;;;23.80;61.90;;;;;;4744604;59;21544;-41
2022/10/26 14:51:36;;;;;;;334.58;299.12;;;23.70;62.00;;;;;;4775617;55;21010;-44
2022/10/26 14:56:40;;;;;;;331.05;296.52;;;23.70;62.00;;;;;;4795153;55;21539;-47
2022/10/26 15:02:19;;;;;;;317.95;284.30;;;23.70;62.40;;;;;;4765613;55;21528;-42
2022/10/26 15:07:20;;;;;;;316.85;283.45;;;23.70;62.90;;;;;;4767572;55;21139;-45
2022/10/26 15:12:34;;;;;;;317.48;284.08;;;23.60;62.90;;;;;;4745190;59;21053;-51
2022/10/26 15:17:41;;;;;;;308.60;276.70;;;23.60;62.30;;;;;;4753641;55;20997;-48
2022/10/26 15:22:47;;;;;;;304.00;272.42;;;23.60;62.40;;;;;;4793539;55;21480;-42
2022/10/26 15:27:50;;;;;;;301.83;270.00;;;23.60;62.50;;;;;;4745236;59;21010;-40
2022/10/26 15:32:55;;;;;;;303.90;272.37;;;23.60;62.50;;;;;;4752148;55;21441;-47
2022/10/26 15:37:58;;;;;;;294.30;263.42;;;23.50;62.40;;;;;;5227326;55;21057;-39
2022/10/26 15:42:59;;;;;;;287.42;257.83;;;23.50;62.40;;;;;;4804742;55;21010;-41
2022/10/26 15:48:27;;;;;;;281.48;252.25;;;23.50;62.40;;;;;;4881244;55;21037;-46
2022/10/26 15:53:29;;;;;;;285.05;255.15;;;24.00;62.70;;;;;;4755030;55;21555;-46
2022/10/26 15:58:31;;;;;;;277.80;249.02;;;23.50;62.50;;;;;;4838375;55;21468;-42
2022/10/26 16:03:32;;;;;;;269.98;241.82;;;23.50;62.50;;;;;;4745120;59;21025;-37
2022/10/26 16:08:33;;;;;;;279.95;250.82;;;23.50;62.50;;;;;;4744905;59;21480;-45
2022/10/26 16:13:34;;;;;;;271.70;243.93;;;23.50;62.50;;;;;;4745148;59;21086;-42
2022/10/26 16:18:34;;;;;;;272.55;244.48;;;23.50;62.50;;;;;;4820602;55;21002;-46
2022/10/26 16:23:35;;;;;;;263.45;235.82;;;23.50;62.50;;;;;;4870081;55;21057;-46
2022/10/26 16:28:37;;;;;;;260.98;233.93;;;23.40;62.40;;;;;;4855149;55;20998;-42
2022/10/26 16:33:37;;;;;;;263.12;235.57;;;23.50;62.40;;;;;;4745410;59;21034;-46
2022/10/26 16:38:38;;;;;;;252.35;225.77;;;23.40;62.40;;;;;;4953335;55;21069;-43
2022/10/26 16:43:41;;;;;;;260.90;233.25;;;23.40;62.40;;;;;;4913618;55;20998;-46
2022/10/26 16:48:44;;;;;;;249.37;223.50;;;23.40;62.30;;;;;;4932302;55;20986;-46
2022/10/26 16:53:50;;;;;;;250.23;224.02;;;23.40;62.30;;;;;;4886878;55;20998;-45
2022/10/26 16:58:51;;;;;;;242.95;217.57;;;23.40;62.40;;;;;;5097279;55;21021;-38
2022/10/26 17:03:52;;;;;;;244.87;219.15;;;23.40;62.30;;;;;;4971450;55;20974;-47
2022/10/26 17:08:53;;;;;;;237.57;212.95;;;23.40;62.30;;;;;;4907359;55;21054;-47
2022/10/26 17:13:54;;;;;;;234.43;209.77;;;23.40;62.40;;;;;;4745404;59;21487;-45
2022/10/26 17:18:55;;;;;;;238.93;214.35;;;23.40;62.30;;;;;;4828799;55;21022;-42
2022/10/26 17:23:56;;;;;;;236.80;212.07;;;23.30;62.20;;;;;;4744635;59;21085;-41
2022/10/26 17:28:57;;;;;;;233.70;209.10;;;23.40;62.30;;;;;;4751258;55;21006;-45
2022/10/26 17:33:58;;;;;;;226.85;203.02;;;23.30;62.20;;;;;;4745473;59;21484;-46
2022/10/26 17:38:59;;;;;;;232.80;208.55;;;23.30;62.30;;;;;;4930522;55;21128;-44
2022/10/26 17:44:00;;;;;;;223.45;200.43;;;23.40;62.30;;;;;;4802489;55;21084;-46
2022/10/26 17:49:01;;;;;;;229.75;205.68;;;23.40;62.30;;;;;;4744893;59;21006;-40
2022/10/26 17:54:02;;;;;;;225.77;202.13;;;23.40;62.30;;;;;;4780477;55;21479;-42
2022/10/26 17:59:08;;;;;;;213.73;191.48;;;23.30;62.20;;;;;;4745036;59;21029;-41
2022/10/26 18:04:09;;;;;;;217.80;194.57;;;23.30;62.20;;;;;;4818300;55;20994;-48
2022/10/26 18:09:09;;;;;;;213.57;190.93;;;23.30;62.20;;;;;;4779372;55;21057;-42
2022/10/26 18:14:10;;;;;;;214.07;191.40;;;23.30;62.10;;;;;;5230647;55;21062;-44
2022/10/26 18:19:11;;;;;;;212.32;190.00;;;23.30;62.10;;;;;;5105914;55;21483;-44
2022/10/26 18:24:12;;;;;;;214.48;191.88;;;23.30;62.10;;;;;;4951675;55;21141;-46
2022/10/26 18:29:13;;;;;;;209.12;187.12;;;23.30;62.10;;;;;;4941214;55;21077;-41
2022/10/26 18:34:13;;;;;;;205.77;183.68;;;23.30;62.70;;;;;;4765025;55;21490;-42
2022/10/26 18:39:14;;;;;;;196.18;175.62;;;23.30;62.20;;;;;;5001052;55;21098;-43
2022/10/26 18:44:17;;;;;;;197.35;176.25;;;23.30;62.10;;;;;;4847628;55;21041;-43
2022/10/26 18:49:19;;;;;;;194.37;173.30;;;23.30;62.10;;;;;;4745245;59;21460;-38
2022/10/26 18:54:20;;;;;;;202.10;180.35;;;23.30;62.10;;;;;;4837141;55;21536;-43
2022/10/26 18:59:21;;;;;;;196.35;175.77;;;23.30;62.30;;;;;;4746299;55;21022;-39
2022/10/26 19:04:21;;;;;;;192.18;171.40;;;23.30;62.00;;;;;;4754302;55;21018;-39
2022/10/26 19:09:24;;;;;;;192.68;172.02;;;23.30;62.00;;;;;;4784747;55;21595;-46
2022/10/26 19:14:25;;;;;;;189.40;168.93;;;23.30;62.00;;;;;;4745224;59;21464;-42
2022/10/26 19:19:25;;;;;;;181.27;161.68;;;23.30;62.10;;;;;;4774388;55;21086;-45
2022/10/26 19:24:26;;;;;;;179.75;160.25;;;23.30;62.30;;;;;;4983763;55;21033;-43
2022/10/26 19:29:27;;;;;;;175.25;156.50;;;23.30;62.00;;;;;;4946784;55;21006;-44
2022/10/26 19:34:28;;;;;;;180.07;160.63;;;23.30;62.00;;;;;;4745390;59;21580;-48
2022/10/26 19:39:29;;;;;;;177.60;158.50;;;23.30;62.00;;;;;;4915204;55;21089;-41
2022/10/26 19:44:29;;;;;;;173.90;155.30;;;23.30;62.00;;;;;;4745638;55;21468;-46
2022/10/26 19:49:30;;;;;;;172.18;153.60;;;23.30;62.10;;;;;;5188274;55;21073;-43
2022/10/26 19:54:31;;;;;;;168.55;150.27;;;23.30;62.00;;;;;;4984336;55;21073;-44
2022/10/26 19:59:32;;;;;;;171.27;152.55;;;23.30;62.00;;;;;;4779577;55;21066;-43
2022/10/26 20:04:33;;;;;;;170.95;152.48;;;23.30;62.00;;;;;;4789197;55;21017;-42
2022/10/26 20:09:33;;;;;;;164.62;146.43;;;23.20;62.00;;;;;;5053625;55;22180;-40
2022/10/26 20:14:34;;;;;;;164.70;146.65;;;23.20;62.00;;;;;;4745429;59;21065;-36
2022/10/26 20:19:35;;;;;;;166.18;148.15;;;23.20;61.90;;;;;;5095859;55;21025;-50
2022/10/26 20:24:36;;;;;;;163.30;145.35;;;23.20;62.50;;;;;;4828300;55;21081;-42
2022/10/26 20:29:37;;;;;;;159.85;142.55;;;23.20;61.90;;;;;;4773060;55;21061;-34
2022/10/26 20:34:37;;;;;;;156.93;139.85;;;23.20;61.90;;;;;;4745439;59;21149;-44
2022/10/26 20:39:39;;;;;;;150.87;134.80;;;23.20;61.90;;;;;;4865047;55;21077;-41
2022/10/26 20:44:42;;;;;;;153.60;136.95;;;23.20;61.80;;;;;;4816668;55;21010;-37
2022/10/26 20:49:44;;;;;;;153.87;137.15;;;23.20;61.80;;;;;;4827949;55;21018;-43
2022/10/26 20:55:02;;;;;;;152.35;135.55;;;23.20;61.80;;;;;;4874178;55;20966;-36
2022/10/26 21:00:07;;;;;;;145.00;129.43;;;23.20;61.80;;;;;;4862417;55;21002;-46
2022/10/26 21:05:08;;;;;;;144.80;129.43;;;23.20;61.70;;;;;;5159073;55;21070;-46
2022/10/26 21:10:09;;;;;;;143.48;128.15;;;23.20;61.80;;;;;;4894095;55;21069;-45
2022/10/26 21:15:10;;;;;;;143.73;128.40;;;23.20;61.80;;;;;;4758420;55;21999;-40
2022/10/26 21:20:11;;;;;;;142.75;127.22;;;23.20;61.60;;;;;;4745336;55;21128;-41
2022/10/26 21:25:12;;;;;;;140.68;125.57;;;23.20;62.30;;;;;;4744480;59;21033;-40
2022/10/26 21:30:13;;;;;;;134.87;120.00;;;23.20;61.60;;;;;;4971580;55;21094;-44
2022/10/26 21:35:14;;;;;;;134.68;120.15;;;23.20;61.60;;;;;;5098275;55;21050;-36
2022/10/26 21:40:15;;;;;;;136.02;121.20;;;23.20;61.60;;;;;;4753530;55;21025;-48
2022/10/26 21:45:16;;;;;;;135.40;120.55;;;23.20;61.50;;;;;;5004228;55;21606;-45
2022/10/26 21:50:18;;;;;;;132.48;118.05;;;23.10;61.40;;;;;;4745596;59;20990;-39
2022/10/26 21:55:19;;;;;;;128.38;114.60;;;23.20;61.40;;;;;;4802126;55;20990;-33
2022/10/26 22:00:20;;;;;;;128.75;114.62;;;23.20;61.40;;;;;;5169641;55;21021;-38
2022/10/26 22:05:20;;;;;;;125.80;112.07;;;23.20;61.40;;;;;;4818841;55;21001;-41
2022/10/26 22:10:22;;;;;;;126.25;112.65;;;23.20;61.50;;;;;;4765315;55;21002;-40
2022/10/26 22:15:22;;;;;;;124.20;110.70;;;23.10;61.30;;;;;;4745440;59;21047;-40
2022/10/26 22:20:23;;;;;;;122.18;108.87;;;23.10;61.40;;;;;;4874952;55;21110;-41
2022/10/26 22:25:24;;;;;;;122.20;108.80;;;23.10;61.20;;;;;;4744660;59;21073;-44
2022/10/26 22:30:25;;;;;;;121.50;108.47;;;23.10;61.30;;;;;;4755743;55;21002;-42
2022/10/26 22:35:25;;;;;;;114.68;102.25;;;23.10;61.30;;;;;;4754980;55;21468;-37
2022/10/26 22:40:26;;;;;;;116.88;104.28;;;23.10;61.20;;;;;;5089786;55;21144;-45
2022/10/26 22:45:27;;;;;;;114.25;101.82;;;23.10;61.10;;;;;;5047751;55;21054;-46
2022/10/26 22:50:28;;;;;;;115.30;102.78;;;23.10;61.10;;;;;;4770745;55;21014;-39
2022/10/26 22:55:29;;;;;;;108.95;97.22;;;23.10;61.10;;;;;;4931964;55;21529;-42
2022/10/26 23:00:29;;;;;;;111.75;99.45;;;23.10;61.10;;;;;;4744777;59;21223;-45
2022/10/26 23:05:30;;;;;;;109.32;97.57;;;23.10;61.10;;;;;;4780560;55;21021;-39
2022/10/26 23:10:31;;;;;;;105.05;93.82;;;23.10;61.10;;;;;;5172950;55;21077;-34
2022/10/26 23:15:32;;;;;;;104.87;93.40;;;23.10;61.10;;;;;;4745172;59;21061;-39
2022/10/26 23:20:33;;;;;;;104.10;93.00;;;23.10;61.00;;;;;;4744961;59;21001;-35
2022/10/26 23:25:34;;;;;;;103.30;91.93;;;23.10;61.00;;;;;;5075990;55;21057;-43
2022/10/26 23:30:36;;;;;;;102.85;91.53;;;23.10;61.00;;;;;;5230044;55;21025;-38
2022/10/26 23:35:38;;;;;;;99.22;88.45;;;23.10;61.00;;;;;;4937694;55;21014;-42
2022/10/26 23:40:38;;;;;;;98.35;87.75;;;23.10;60.90;;;;;;5230938;55;21014;-41
2022/10/26 23:45:40;;;;;;;95.90;85.43;;;23.10;60.90;;;;;;4930251;55;21009;-40
2022/10/26 23:50:46;;;;;;;97.78;87.07;;;23.10;60.90;;;;;;5040860;55;21005;-43
2022/10/26 23:55:47;;;;;;;96.28;85.28;;;23.10;60.90;;;;;;5217340;55;21019;-45
